sensor_id;sensor_type;location;lat;lon;timestamp;P1;durP1;ratioP1;P2;durP2;ratioP2
6185;SDS011;3126;52.738;8.316;2024-01-25T00:02:01;20.70;;;3.78;;
6185;SDS011;3126;52.738;8.316;2024-01-25T00:07:03;19.02;;;3.85;;
6185;SDS011;3126;52.738;8.316;2024-01-25T00:12:04;20.30;;;4.07;;
6185;SDS011;3126;52.738;8.316;2024-01-25T00:17:05;17.92;;;3.45;;
6185;SDS011;3126;52.738;8.316;2024-01-25T00:22:06;18.83;;;4.28;;
6185;SDS011;3126;52.738;8.316;2024-01-25T00:27:07;22.17;;;3.00;;
6185;SDS011;3126;52.738;8.316;2024-01-25T00:32:08;14.65;;;3.17;;
6185;SDS011;3126;52.738;8.316;2024-01-25T00:37:09;19.30;;;4.07;;
6185;SDS011;3126;52.738;8.316;2024-01-25T00:42:12;19.02;;;3.40;;
6185;SDS011;3126;52.738;8.316;2024-01-25T00:47:14;14.80;;;3.10;;
6185;SDS011;3126;52.738;8.316;2024-01-25T00:52:15;20.25;;;4.00;;
6185;SDS011;3126;52.738;8.316;2024-01-25T00:57:16;17.33;;;3.42;;
6185;SDS011;3126;52.738;8.316;2024-01-25T01:02:17;12.70;;;3.80;;
6185;SDS011;3126;52.738;8.316;2024-01-25T01:07:21;18.48;;;5.18;;
6185;SDS011;3126;52.738;8.316;2024-01-25T01:12:23;17.98;;;3.67;;
6185;SDS011;3126;52.738;8.316;2024-01-25T01:17:24;18.33;;;3.38;;
6185;SDS011;3126;52.738;8.316;2024-01-25T01:22:25;21.90;;;3.97;;
6185;SDS011;3126;52.738;8.316;2024-01-25T01:27:26;21.20;;;3.92;;
6185;SDS011;3126;52.738;8.316;2024-01-25T01:32:27;22.58;;;4.65;;
6185;SDS011;3126;52.738;8.316;2024-01-25T01:37:28;18.55;;;3.42;;
6185;SDS011;3126;52.738;8.316;2024-01-25T01:42:30;21.67;;;4.03;;
6185;SDS011;3126;52.738;8.316;2024-01-25T01:47:32;16.13;;;3.13;;
6185;SDS011;3126;52.738;8.316;2024-01-25T01:52:33;19.48;;;3.08;;
6185;SDS011;3126;52.738;8.316;2024-01-25T01:57:35;16.80;;;3.72;;
6185;SDS011;3126;52.738;8.316;2024-01-25T02:02:37;15.75;;;4.00;;
6185;SDS011;3126;52.738;8.316;2024-01-25T02:07:38;12.05;;;4.07;;
6185;SDS011;3126;52.738;8.316;2024-01-25T02:12:40;19.52;;;3.83;;
6185;SDS011;3126;52.738;8.316;2024-01-25T02:17:41;25.75;;;4.45;;
6185;SDS011;3126;52.738;8.316;2024-01-25T02:22:42;14.60;;;4.18;;
6185;SDS011;3126;52.738;8.316;2024-01-25T02:27:43;12.40;;;3.97;;
6185;SDS011;3126;52.738;8.316;2024-01-25T02:32:44;19.92;;;4.03;;
6185;SDS011;3126;52.738;8.316;2024-01-25T02:37:45;18.77;;;3.30;;
6185;SDS011;3126;52.738;8.316;2024-01-25T02:42:46;17.20;;;3.58;;
6185;SDS011;3126;52.738;8.316;2024-01-25T02:47:47;17.83;;;3.67;;
6185;SDS011;3126;52.738;8.316;2024-01-25T02:52:48;19.08;;;3.30;;
6185;SDS011;3126;52.738;8.316;2024-01-25T02:57:49;18.88;;;3.85;;
6185;SDS011;3126;52.738;8.316;2024-01-25T03:02:50;17.50;;;3.53;;
6185;SDS011;3126;52.738;8.316;2024-01-25T03:07:51;12.40;;;3.30;;
6185;SDS011;3126;52.738;8.316;2024-01-25T03:12:52;18.45;;;3.85;;
6185;SDS011;3126;52.738;8.316;2024-01-25T03:17:52;17.50;;;3.63;;
6185;SDS011;3126;52.738;8.316;2024-01-25T03:22:53;20.42;;;4.00;;
6185;SDS011;3126;52.738;8.316;2024-01-25T03:27:55;16.23;;;3.58;;
6185;SDS011;3126;52.738;8.316;2024-01-25T03:32:56;16.88;;;3.00;;
6185;SDS011;3126;52.738;8.316;2024-01-25T03:37:57;20.75;;;3.33;;
6185;SDS011;3126;52.738;8.316;2024-01-25T03:42:58;14.48;;;3.78;;
6185;SDS011;3126;52.738;8.316;2024-01-25T03:47:59;19.05;;;2.85;;
6185;SDS011;3126;52.738;8.316;2024-01-25T03:53:00;19.00;;;3.17;;
6185;SDS011;3126;52.738;8.316;2024-01-25T03:58:01;14.57;;;3.22;;
6185;SDS011;3126;52.738;8.316;2024-01-25T04:03:02;15.85;;;4.32;;
6185;SDS011;3126;52.738;8.316;2024-01-25T04:08:03;16.98;;;4.32;;
6185;SDS011;3126;52.738;8.316;2024-01-25T04:13:04;21.17;;;3.88;;
6185;SDS011;3126;52.738;8.316;2024-01-25T04:18:06;16.48;;;3.60;;
6185;SDS011;3126;52.738;8.316;2024-01-25T04:23:07;21.77;;;4.43;;
6185;SDS011;3126;52.738;8.316;2024-01-25T04:28:08;24.35;;;4.60;;
6185;SDS011;3126;52.738;8.316;2024-01-25T04:33:09;14.73;;;4.60;;
6185;SDS011;3126;52.738;8.316;2024-01-25T04:38:10;21.60;;;3.92;;
6185;SDS011;3126;52.738;8.316;2024-01-25T04:43:11;24.05;;;5.43;;
6185;SDS011;3126;52.738;8.316;2024-01-25T04:48:12;27.63;;;4.38;;
6185;SDS011;3126;52.738;8.316;2024-01-25T04:53:13;17.92;;;3.40;;
6185;SDS011;3126;52.738;8.316;2024-01-25T04:58:14;23.90;;;4.55;;
6185;SDS011;3126;52.738;8.316;2024-01-25T05:03:15;15.88;;;3.53;;
6185;SDS011;3126;52.738;8.316;2024-01-25T05:08:16;22.95;;;3.60;;
6185;SDS011;3126;52.738;8.316;2024-01-25T05:13:18;20.20;;;3.95;;
6185;SDS011;3126;52.738;8.316;2024-01-25T05:18:19;25.65;;;4.18;;
6185;SDS011;3126;52.738;8.316;2024-01-25T05:23:20;25.60;;;3.42;;
6185;SDS011;3126;52.738;8.316;2024-01-25T05:28:21;17.65;;;3.97;;
6185;SDS011;3126;52.738;8.316;2024-01-25T05:33:24;25.33;;;4.28;;
6185;SDS011;3126;52.738;8.316;2024-01-25T05:38:24;19.58;;;4.55;;
6185;SDS011;3126;52.738;8.316;2024-01-25T05:43:25;20.90;;;3.55;;
6185;SDS011;3126;52.738;8.316;2024-01-25T05:48:26;22.38;;;4.82;;
6185;SDS011;3126;52.738;8.316;2024-01-25T05:53:27;20.88;;;4.03;;
6185;SDS011;3126;52.738;8.316;2024-01-25T05:58:27;15.27;;;4.05;;
6185;SDS011;3126;52.738;8.316;2024-01-25T06:03:28;20.17;;;4.20;;
6185;SDS011;3126;52.738;8.316;2024-01-25T06:08:29;29.33;;;4.65;;
6185;SDS011;3126;52.738;8.316;2024-01-25T06:13:31;25.00;;;4.00;;
6185;SDS011;3126;52.738;8.316;2024-01-25T06:18:32;19.88;;;4.28;;
6185;SDS011;3126;52.738;8.316;2024-01-25T06:23:33;22.77;;;3.95;;
6185;SDS011;3126;52.738;8.316;2024-01-25T06:28:34;29.50;;;5.20;;
6185;SDS011;3126;52.738;8.316;2024-01-25T06:33:35;22.58;;;4.45;;
6185;SDS011;3126;52.738;8.316;2024-01-25T06:38:36;16.73;;;4.50;;
6185;SDS011;3126;52.738;8.316;2024-01-25T06:43:36;23.45;;;4.25;;
6185;SDS011;3126;52.738;8.316;2024-01-25T06:48:39;26.20;;;4.60;;
6185;SDS011;3126;52.738;8.316;2024-01-25T06:53:41;19.80;;;4.03;;
6185;SDS011;3126;52.738;8.316;2024-01-25T06:58:41;27.25;;;5.13;;
6185;SDS011;3126;52.738;8.316;2024-01-25T07:03:42;19.83;;;4.55;;
6185;SDS011;3126;52.738;8.316;2024-01-25T07:08:42;31.95;;;5.43;;
6185;SDS011;3126;52.738;8.316;2024-01-25T07:13:43;23.50;;;4.63;;
6185;SDS011;3126;52.738;8.316;2024-01-25T07:18:43;23.77;;;4.40;;
6185;SDS011;3126;52.738;8.316;2024-01-25T07:23:44;23.33;;;3.85;;
6185;SDS011;3126;52.738;8.316;2024-01-25T07:28:45;25.52;;;5.38;;
6185;SDS011;3126;52.738;8.316;2024-01-25T07:33:46;24.08;;;4.50;;
6185;SDS011;3126;52.738;8.316;2024-01-25T07:38:46;21.98;;;4.53;;
6185;SDS011;3126;52.738;8.316;2024-01-25T07:43:48;23.38;;;5.53;;
6185;SDS011;3126;52.738;8.316;2024-01-25T07:48:48;24.42;;;5.18;;
6185;SDS011;3126;52.738;8.316;2024-01-25T07:53:49;31.52;;;4.95;;
6185;SDS011;3126;52.738;8.316;2024-01-25T07:58:50;22.48;;;4.68;;
6185;SDS011;3126;52.738;8.316;2024-01-25T08:03:51;24.20;;;5.32;;
6185;SDS011;3126;52.738;8.316;2024-01-25T08:08:51;23.38;;;4.60;;
6185;SDS011;3126;52.738;8.316;2024-01-25T08:13:52;22.40;;;4.38;;
6185;SDS011;3126;52.738;8.316;2024-01-25T08:18:53;32.15;;;5.28;;
6185;SDS011;3126;52.738;8.316;2024-01-25T08:23:53;34.78;;;6.07;;
6185;SDS011;3126;52.738;8.316;2024-01-25T08:28:54;30.30;;;5.28;;
6185;SDS011;3126;52.738;8.316;2024-01-25T08:33:54;28.65;;;5.70;;
6185;SDS011;3126;52.738;8.316;2024-01-25T08:38:55;18.02;;;5.43;;
6185;SDS011;3126;52.738;8.316;2024-01-25T08:43:56;28.25;;;5.35;;
6185;SDS011;3126;52.738;8.316;2024-01-25T08:48:56;22.15;;;4.40;;
6185;SDS011;3126;52.738;8.316;2024-01-25T08:53:57;28.05;;;5.10;;
6185;SDS011;3126;52.738;8.316;2024-01-25T08:58:57;31.15;;;6.10;;
6185;SDS011;3126;52.738;8.316;2024-01-25T09:03:58;23.13;;;4.25;;
6185;SDS011;3126;52.738;8.316;2024-01-25T09:14:03;27.65;;;5.22;;
6185;SDS011;3126;52.738;8.316;2024-01-25T09:19:04;23.60;;;4.78;;
6185;SDS011;3126;52.738;8.316;2024-01-25T09:24:05;19.65;;;4.40;;
6185;SDS011;3126;52.738;8.316;2024-01-25T09:29:06;29.67;;;4.15;;
6185;SDS011;3126;52.738;8.316;2024-01-25T09:34:07;35.03;;;6.85;;
6185;SDS011;3126;52.738;8.316;2024-01-25T09:39:08;27.25;;;5.70;;
6185;SDS011;3126;52.738;8.316;2024-01-25T09:44:08;22.35;;;4.70;;
6185;SDS011;3126;52.738;8.316;2024-01-25T09:49:09;31.60;;;6.40;;
6185;SDS011;3126;52.738;8.316;2024-01-25T09:54:10;21.55;;;4.82;;
6185;SDS011;3126;52.738;8.316;2024-01-25T09:59:11;25.33;;;4.57;;
6185;SDS011;3126;52.738;8.316;2024-01-25T10:04:12;25.38;;;5.93;;
6185;SDS011;3126;52.738;8.316;2024-01-25T10:09:12;22.33;;;5.95;;
6185;SDS011;3126;52.738;8.316;2024-01-25T10:14:14;23.25;;;4.82;;
6185;SDS011;3126;52.738;8.316;2024-01-25T10:19:14;24.75;;;5.25;;
6185;SDS011;3126;52.738;8.316;2024-01-25T10:24:15;22.15;;;5.40;;
6185;SDS011;3126;52.738;8.316;2024-01-25T10:29:16;30.58;;;4.95;;
6185;SDS011;3126;52.738;8.316;2024-01-25T10:34:16;24.30;;;4.80;;
6185;SDS011;3126;52.738;8.316;2024-01-25T10:39:18;27.05;;;5.05;;
6185;SDS011;3126;52.738;8.316;2024-01-25T10:44:20;22.23;;;5.00;;
6185;SDS011;3126;52.738;8.316;2024-01-25T10:49:21;24.92;;;5.63;;
6185;SDS011;3126;52.738;8.316;2024-01-25T10:54:22;27.23;;;6.05;;
6185;SDS011;3126;52.738;8.316;2024-01-25T10:59:23;30.70;;;5.30;;
6185;SDS011;3126;52.738;8.316;2024-01-25T11:04:25;19.98;;;5.40;;
6185;SDS011;3126;52.738;8.316;2024-01-25T11:09:26;19.83;;;5.22;;
6185;SDS011;3126;52.738;8.316;2024-01-25T11:14:27;25.48;;;5.93;;
6185;SDS011;3126;52.738;8.316;2024-01-25T11:19:29;26.25;;;5.65;;
6185;SDS011;3126;52.738;8.316;2024-01-25T11:24:30;30.75;;;7.05;;
6185;SDS011;3126;52.738;8.316;2024-01-25T11:29:38;21.80;;;5.30;;
6185;SDS011;3126;52.738;8.316;2024-01-25T11:34:40;17.23;;;4.72;;
6185;SDS011;3126;52.738;8.316;2024-01-25T11:39:41;22.73;;;5.78;;
6185;SDS011;3126;52.738;8.316;2024-01-25T11:44:44;26.13;;;5.55;;
6185;SDS011;3126;52.738;8.316;2024-01-25T11:49:45;27.85;;;6.25;;
6185;SDS011;3126;52.738;8.316;2024-01-25T11:54:46;19.50;;;5.57;;
6185;SDS011;3126;52.738;8.316;2024-01-25T11:59:47;18.65;;;5.70;;
6185;SDS011;3126;52.738;8.316;2024-01-25T12:04:49;25.98;;;10.00;;
6185;SDS011;3126;52.738;8.316;2024-01-25T12:10:01;32.30;;;11.73;;
6185;SDS011;3126;52.738;8.316;2024-01-25T12:15:04;30.10;;;7.63;;
6185;SDS011;3126;52.738;8.316;2024-01-25T12:20:05;22.60;;;5.47;;
6185;SDS011;3126;52.738;8.316;2024-01-25T12:25:10;23.95;;;6.07;;
6185;SDS011;3126;52.738;8.316;2024-01-25T12:30:13;28.58;;;6.97;;
6185;SDS011;3126;52.738;8.316;2024-01-25T12:35:14;25.02;;;5.88;;
6185;SDS011;3126;52.738;8.316;2024-01-25T12:40:15;18.48;;;5.68;;
6185;SDS011;3126;52.738;8.316;2024-01-25T12:45:16;22.15;;;5.85;;
6185;SDS011;3126;52.738;8.316;2024-01-25T12:50:17;26.48;;;5.80;;
6185;SDS011;3126;52.738;8.316;2024-01-25T12:55:18;22.63;;;4.32;;
6185;SDS011;3126;52.738;8.316;2024-01-25T13:00:19;22.23;;;5.07;;
6185;SDS011;3126;52.738;8.316;2024-01-25T13:05:20;22.95;;;4.68;;
6185;SDS011;3126;52.738;8.316;2024-01-25T13:10:21;20.63;;;4.97;;
6185;SDS011;3126;52.738;8.316;2024-01-25T13:15:22;23.05;;;4.32;;
6185;SDS011;3126;52.738;8.316;2024-01-25T13:20:23;28.63;;;5.03;;
6185;SDS011;3126;52.738;8.316;2024-01-25T13:25:24;24.35;;;5.35;;
6185;SDS011;3126;52.738;8.316;2024-01-25T13:30:25;27.58;;;5.45;;
6185;SDS011;3126;52.738;8.316;2024-01-25T13:35:26;21.52;;;5.88;;
6185;SDS011;3126;52.738;8.316;2024-01-25T13:40:27;17.88;;;4.47;;
6185;SDS011;3126;52.738;8.316;2024-01-25T13:45:28;14.85;;;4.32;;
6185;SDS011;3126;52.738;8.316;2024-01-25T13:50:29;19.27;;;4.35;;
6185;SDS011;3126;52.738;8.316;2024-01-25T13:55:30;21.83;;;4.40;;
6185;SDS011;3126;52.738;8.316;2024-01-25T14:00:31;19.20;;;4.15;;
6185;SDS011;3126;52.738;8.316;2024-01-25T14:05:32;39.30;;;9.40;;
6185;SDS011;3126;52.738;8.316;2024-01-25T14:10:33;21.98;;;4.53;;
6185;SDS011;3126;52.738;8.316;2024-01-25T14:15:34;17.33;;;4.95;;
6185;SDS011;3126;52.738;8.316;2024-01-25T14:20:35;24.50;;;5.95;;
6185;SDS011;3126;52.738;8.316;2024-01-25T14:25:37;20.83;;;6.13;;
6185;SDS011;3126;52.738;8.316;2024-01-25T14:30:38;19.70;;;5.28;;
6185;SDS011;3126;52.738;8.316;2024-01-25T14:35:39;19.08;;;4.65;;
6185;SDS011;3126;52.738;8.316;2024-01-25T14:40:40;18.95;;;4.65;;
6185;SDS011;3126;52.738;8.316;2024-01-25T14:45:42;15.38;;;5.57;;
6185;SDS011;3126;52.738;8.316;2024-01-25T14:50:43;27.70;;;4.95;;
6185;SDS011;3126;52.738;8.316;2024-01-25T14:55:44;18.75;;;4.80;;
6185;SDS011;3126;52.738;8.316;2024-01-25T15:00:45;24.42;;;4.85;;
6185;SDS011;3126;52.738;8.316;2024-01-25T15:05:46;21.00;;;5.80;;
6185;SDS011;3126;52.738;8.316;2024-01-25T15:10:47;19.38;;;5.55;;
6185;SDS011;3126;52.738;8.316;2024-01-25T15:15:48;19.77;;;4.47;;
6185;SDS011;3126;52.738;8.316;2024-01-25T15:20:49;14.20;;;5.22;;
6185;SDS011;3126;52.738;8.316;2024-01-25T15:25:51;21.92;;;5.30;;
6185;SDS011;3126;52.738;8.316;2024-01-25T15:30:52;15.93;;;4.82;;
6185;SDS011;3126;52.738;8.316;2024-01-25T15:35:53;17.55;;;5.53;;
6185;SDS011;3126;52.738;8.316;2024-01-25T15:40:54;20.80;;;5.07;;
6185;SDS011;3126;52.738;8.316;2024-01-25T15:45:55;24.25;;;5.00;;
6185;SDS011;3126;52.738;8.316;2024-01-25T15:50:56;22.95;;;5.32;;
6185;SDS011;3126;52.738;8.316;2024-01-25T15:55:57;18.35;;;5.20;;
6185;SDS011;3126;52.738;8.316;2024-01-25T16:01:01;23.08;;;5.40;;
6185;SDS011;3126;52.738;8.316;2024-01-25T16:06:02;19.08;;;5.32;;
6185;SDS011;3126;52.738;8.316;2024-01-25T16:11:03;24.17;;;6.00;;
6185;SDS011;3126;52.738;8.316;2024-01-25T16:16:04;23.85;;;5.45;;
6185;SDS011;3126;52.738;8.316;2024-01-25T16:21:05;19.33;;;5.68;;
6185;SDS011;3126;52.738;8.316;2024-01-25T16:26:06;25.75;;;5.93;;
6185;SDS011;3126;52.738;8.316;2024-01-25T16:31:07;23.85;;;6.43;;
6185;SDS011;3126;52.738;8.316;2024-01-25T16:36:08;22.70;;;6.15;;
6185;SDS011;3126;52.738;8.316;2024-01-25T16:41:09;26.02;;;6.38;;
6185;SDS011;3126;52.738;8.316;2024-01-25T16:46:10;23.50;;;5.85;;
6185;SDS011;3126;52.738;8.316;2024-01-25T16:51:10;24.92;;;6.07;;
6185;SDS011;3126;52.738;8.316;2024-01-25T16:56:11;26.15;;;7.03;;
6185;SDS011;3126;52.738;8.316;2024-01-25T17:01:11;14.93;;;5.97;;
6185;SDS011;3126;52.738;8.316;2024-01-25T17:06:12;32.35;;;6.15;;
6185;SDS011;3126;52.738;8.316;2024-01-25T17:11:12;17.13;;;6.93;;
6185;SDS011;3126;52.738;8.316;2024-01-25T17:16:13;30.67;;;7.90;;
6185;SDS011;3126;52.738;8.316;2024-01-25T17:21:14;25.40;;;6.32;;
6185;SDS011;3126;52.738;8.316;2024-01-25T17:26:14;29.35;;;7.63;;
6185;SDS011;3126;52.738;8.316;2024-01-25T17:31:15;28.52;;;6.90;;
6185;SDS011;3126;52.738;8.316;2024-01-25T17:36:19;25.38;;;7.25;;
6185;SDS011;3126;52.738;8.316;2024-01-25T17:41:19;25.80;;;6.82;;
6185;SDS011;3126;52.738;8.316;2024-01-25T17:46:20;22.65;;;6.90;;
6185;SDS011;3126;52.738;8.316;2024-01-25T17:51:21;23.25;;;6.18;;
6185;SDS011;3126;52.738;8.316;2024-01-25T17:56:21;22.10;;;6.35;;
6185;SDS011;3126;52.738;8.316;2024-01-25T18:01:22;27.02;;;8.10;;
6185;SDS011;3126;52.738;8.316;2024-01-25T18:06:22;27.35;;;7.75;;
6185;SDS011;3126;52.738;8.316;2024-01-25T18:11:23;28.05;;;5.82;;
6185;SDS011;3126;52.738;8.316;2024-01-25T18:16:24;28.00;;;7.57;;
6185;SDS011;3126;52.738;8.316;2024-01-25T18:21:25;31.65;;;6.88;;
6185;SDS011;3126;52.738;8.316;2024-01-25T18:26:25;24.73;;;6.07;;
6185;SDS011;3126;52.738;8.316;2024-01-25T18:31:26;24.33;;;6.90;;
6185;SDS011;3126;52.738;8.316;2024-01-25T18:36:27;26.08;;;6.03;;
6185;SDS011;3126;52.738;8.316;2024-01-25T18:41:27;23.25;;;5.68;;
6185;SDS011;3126;52.738;8.316;2024-01-25T18:46:28;23.83;;;6.38;;
6185;SDS011;3126;52.738;8.316;2024-01-25T18:51:29;26.15;;;5.55;;
6185;SDS011;3126;52.738;8.316;2024-01-25T18:56:30;28.45;;;6.30;;
6185;SDS011;3126;52.738;8.316;2024-01-25T19:01:30;19.10;;;5.97;;
6185;SDS011;3126;52.738;8.316;2024-01-25T19:06:32;29.15;;;6.97;;
6185;SDS011;3126;52.738;8.316;2024-01-25T19:11:34;24.80;;;6.90;;
6185;SDS011;3126;52.738;8.316;2024-01-25T19:16:34;24.25;;;6.50;;
6185;SDS011;3126;52.738;8.316;2024-01-25T19:21:35;24.08;;;6.95;;
6185;SDS011;3126;52.738;8.316;2024-01-25T19:26:36;29.60;;;7.47;;
6185;SDS011;3126;52.738;8.316;2024-01-25T19:31:36;27.33;;;8.18;;
6185;SDS011;3126;52.738;8.316;2024-01-25T19:36:37;30.70;;;9.57;;
6185;SDS011;3126;52.738;8.316;2024-01-25T19:41:38;29.95;;;9.50;;
6185;SDS011;3126;52.738;8.316;2024-01-25T19:46:38;33.60;;;9.85;;
6185;SDS011;3126;52.738;8.316;2024-01-25T19:51:39;27.48;;;8.75;;
6185;SDS011;3126;52.738;8.316;2024-01-25T19:56:39;36.25;;;9.18;;
6185;SDS011;3126;52.738;8.316;2024-01-25T20:01:40;31.48;;;9.00;;
6185;SDS011;3126;52.738;8.316;2024-01-25T20:06:41;19.88;;;8.35;;
6185;SDS011;3126;52.738;8.316;2024-01-25T20:11:42;30.00;;;9.18;;
6185;SDS011;3126;52.738;8.316;2024-01-25T20:16:43;29.38;;;11.45;;
6185;SDS011;3126;52.738;8.316;2024-01-25T20:21:44;37.10;;;10.90;;
6185;SDS011;3126;52.738;8.316;2024-01-25T20:26:44;25.58;;;10.43;;
6185;SDS011;3126;52.738;8.316;2024-01-25T20:31:45;32.17;;;10.63;;
6185;SDS011;3126;52.738;8.316;2024-01-25T20:36:45;34.17;;;9.80;;
6185;SDS011;3126;52.738;8.316;2024-01-25T20:41:46;29.75;;;8.77;;
6185;SDS011;3126;52.738;8.316;2024-01-25T20:46:47;36.33;;;10.63;;
6185;SDS011;3126;52.738;8.316;2024-01-25T20:51:50;31.80;;;9.98;;
6185;SDS011;3126;52.738;8.316;2024-01-25T20:56:50;34.38;;;10.25;;
6185;SDS011;3126;52.738;8.316;2024-01-25T21:01:51;30.35;;;10.82;;
6185;SDS011;3126;52.738;8.316;2024-01-25T21:06:52;35.80;;;10.30;;
6185;SDS011;3126;52.738;8.316;2024-01-25T21:11:53;26.27;;;9.15;;
6185;SDS011;3126;52.738;8.316;2024-01-25T21:16:53;34.05;;;11.15;;
6185;SDS011;3126;52.738;8.316;2024-01-25T21:21:55;27.35;;;10.57;;
6185;SDS011;3126;52.738;8.316;2024-01-25T21:26:55;32.33;;;9.50;;
6185;SDS011;3126;52.738;8.316;2024-01-25T21:31:56;28.42;;;8.85;;
6185;SDS011;3126;52.738;8.316;2024-01-25T21:36:56;29.98;;;9.10;;
6185;SDS011;3126;52.738;8.316;2024-01-25T21:41:57;26.15;;;9.85;;
6185;SDS011;3126;52.738;8.316;2024-01-25T21:46:57;23.98;;;8.82;;
6185;SDS011;3126;52.738;8.316;2024-01-25T21:51:58;30.33;;;9.73;;
6185;SDS011;3126;52.738;8.316;2024-01-25T21:57:01;28.00;;;9.20;;
6185;SDS011;3126;52.738;8.316;2024-01-25T22:02:01;29.00;;;10.30;;
6185;SDS011;3126;52.738;8.316;2024-01-25T22:07:02;24.48;;;9.80;;
6185;SDS011;3126;52.738;8.316;2024-01-25T22:12:02;32.85;;;10.75;;
6185;SDS011;3126;52.738;8.316;2024-01-25T22:17:03;27.65;;;10.30;;
6185;SDS011;3126;52.738;8.316;2024-01-25T22:22:05;33.05;;;12.35;;
6185;SDS011;3126;52.738;8.316;2024-01-25T22:27:05;36.17;;;12.57;;
6185;SDS011;3126;52.738;8.316;2024-01-25T22:32:08;30.70;;;11.43;;
6185;SDS011;3126;52.738;8.316;2024-01-25T22:37:09;36.13;;;10.30;;
6185;SDS011;3126;52.738;8.316;2024-01-25T22:42:09;37.92;;;12.02;;
6185;SDS011;3126;52.738;8.316;2024-01-25T22:47:10;26.48;;;10.45;;
6185;SDS011;3126;52.738;8.316;2024-01-25T22:52:10;27.95;;;10.10;;
6185;SDS011;3126;52.738;8.316;2024-01-25T22:57:11;24.88;;;9.57;;
6185;SDS011;3126;52.738;8.316;2024-01-25T23:02:12;25.33;;;9.63;;
6185;SDS011;3126;52.738;8.316;2024-01-25T23:07:12;25.25;;;9.80;;
6185;SDS011;3126;52.738;8.316;2024-01-25T23:12:13;22.65;;;10.82;;
6185;SDS011;3126;52.738;8.316;2024-01-25T23:17:13;30.35;;;10.88;;
6185;SDS011;3126;52.738;8.316;2024-01-25T23:22:14;25.35;;;12.15;;
6185;SDS011;3126;52.738;8.316;2024-01-25T23:27:14;30.70;;;12.40;;
6185;SDS011;3126;52.738;8.316;2024-01-25T23:32:15;29.20;;;13.05;;
6185;SDS011;3126;52.738;8.316;2024-01-25T23:37:16;30.02;;;12.85;;
6185;SDS011;3126;52.738;8.316;2024-01-25T23:42:17;28.33;;;14.13;;
6185;SDS011;3126;52.738;8.316;2024-01-25T23:47:18;33.17;;;12.80;;
6185;SDS011;3126;52.738;8.316;2024-01-25T23:52:19;31.88;;;14.25;;
6185;SDS011;3126;52.738;8.316;2024-01-25T23:57:20;33.28;;;13.73;;
